Time;durP1;ratioP1;P1;durP2;ratioP2;P2;SDS_P1;SDS_P2;PMS_P1;PMS_P2;Temp;Humidity;BMP_temperature;BMP_pressure;BME280_temperature;BME280_humidity;BME280_pressure;Samples;Min_cycle;Max_cycle;Signal;HPM_P1;HPM_P2
2021/10/27 00:01:03;;;;;;;36.90;31.55;;;13.70;99.90;;;;;;5085871;28;20085;-71
2021/10/27 00:03:29;;;;;;;39.17;30.63;;;13.70;99.90;;;;;;5096012;28;20044;-71
2021/10/27 00:05:55;;;;;;;41.20;29.67;;;13.70;99.90;;;;;;5088456;28;20053;-71
2021/10/27 00:08:20;;;;;;;39.38;30.45;;;13.70;99.90;;;;;;5080113;28;20517;-71
2021/10/27 00:10:47;;;;;;;39.42;29.98;;;13.80;99.90;;;;;;5061054;28;20548;-72
2021/10/27 00:13:13;;;;;;;36.33;30.55;;;13.80;99.90;;;;;;5085029;28;20127;-71
2021/10/27 00:15:39;;;;;;;39.30;30.10;;;13.80;99.90;;;;;;5052446;28;20123;-71
2021/10/27 00:18:06;;;;;;;46.30;31.95;;;13.80;99.90;;;;;;5085858;28;20082;-70
2021/10/27 00:20:32;;;;;;;41.33;30.25;;;13.80;99.90;;;;;;5092414;28;20089;-71
2021/10/27 00:22:58;;;;;;;42.65;30.27;;;13.80;99.90;;;;;;5075509;28;20066;-71
2021/10/27 00:25:24;;;;;;;36.72;30.27;;;13.80;99.90;;;;;;5074635;28;20506;-71
2021/10/27 00:27:50;;;;;;;35.95;28.92;;;13.80;99.90;;;;;;5073056;28;20040;-71
2021/10/27 00:30:16;;;;;;;41.88;30.83;;;13.70;99.90;;;;;;5077665;28;20393;-71
2021/10/27 00:32:42;;;;;;;34.40;29.65;;;13.80;99.90;;;;;;5072224;28;20040;-73
2021/10/27 00:35:08;;;;;;;42.72;30.23;;;13.80;99.90;;;;;;5071031;28;20143;-73
2021/10/27 00:37:34;;;;;;;39.63;29.48;;;13.80;99.90;;;;;;5053211;28;20040;-71
2021/10/27 00:40:00;;;;;;;37.50;29.15;;;13.70;99.90;;;;;;5069467;28;20059;-71
2021/10/27 00:42:26;;;;;;;40.28;29.35;;;13.70;99.90;;;;;;5086357;28;20071;-71
2021/10/27 00:44:52;;;;;;;36.40;29.38;;;13.70;99.90;;;;;;5088943;28;20190;-71
2021/10/27 00:47:18;;;;;;;40.40;28.85;;;13.70;99.90;;;;;;5098198;28;20686;-70
2021/10/27 00:49:46;;;;;;;33.67;28.00;;;13.70;99.90;;;;;;5070913;28;20048;-70
2021/10/27 00:52:14;;;;;;;35.67;27.58;;;13.70;99.90;;;;;;5075701;28;20468;-71
2021/10/27 00:54:42;;;;;;;36.03;27.88;;;13.70;99.90;;;;;;5070518;28;20036;-72
2021/10/27 00:57:08;;;;;;;35.00;27.42;;;13.70;99.90;;;;;;5086669;28;20047;-71
2021/10/27 00:59:40;;;;;;;35.50;26.75;;;13.70;99.90;;;;;;5096980;28;20783;-72
2021/10/27 01:02:07;;;;;;;36.58;27.73;;;13.70;99.90;;;;;;5089488;28;20490;-72
2021/10/27 01:04:33;;;;;;;38.83;27.70;;;13.70;99.90;;;;;;5077956;28;20520;-72
2021/10/27 01:06:59;;;;;;;33.60;26.83;;;13.70;99.90;;;;;;5089277;28;20052;-72
2021/10/27 01:09:25;;;;;;;38.60;26.17;;;13.70;99.90;;;;;;5080701;28;20044;-71
2021/10/27 01:11:51;;;;;;;38.25;27.38;;;13.70;99.90;;;;;;5075233;28;20500;-71
2021/10/27 01:14:17;;;;;;;29.27;25.77;;;13.70;99.90;;;;;;5051733;28;20055;-71
2021/10/27 01:16:45;;;;;;;38.17;27.15;;;13.70;99.90;;;;;;5085696;28;20035;-72
2021/10/27 01:19:11;;;;;;;31.73;24.85;;;13.60;99.90;;;;;;5072750;28;20051;-71
2021/10/27 01:21:40;;;;;;;33.00;25.02;;;13.60;99.90;;;;;;5051235;28;20052;-71
2021/10/27 01:24:07;;;;;;;33.97;26.38;;;13.60;99.90;;;;;;5073433;28;20040;-70
2021/10/27 01:26:34;;;;;;;35.10;24.08;;;13.70;99.90;;;;;;5090945;28;20052;-70
2021/10/27 01:29:01;;;;;;;30.83;25.67;;;13.70;99.90;;;;;;5093996;28;20492;-70
2021/10/27 01:31:27;;;;;;;35.30;25.50;;;13.70;99.90;;;;;;5082340;28;20039;-71
2021/10/27 01:33:53;;;;;;;36.72;25.80;;;13.70;99.90;;;;;;5067012;28;20051;-71
2021/10/27 01:36:20;;;;;;;30.63;24.45;;;13.60;99.90;;;;;;5075835;28;21386;-71
2021/10/27 01:38:48;;;;;;;36.50;25.95;;;13.70;99.90;;;;;;5084507;28;20127;-72
2021/10/27 01:41:15;;;;;;;31.73;24.65;;;13.70;99.90;;;;;;5094133;28;20054;-72
2021/10/27 01:43:51;;;;;;;33.03;24.75;;;13.70;99.90;;;;;;5090962;28;20083;-71
2021/10/27 01:46:24;;;;;;;37.30;25.45;;;13.70;99.90;;;;;;5070744;28;20472;-72
2021/10/27 01:48:50;;;;;;;35.55;26.60;;;13.70;99.90;;;;;;5088908;28;20043;-72
2021/10/27 01:51:16;;;;;;;38.15;27.88;;;13.70;99.90;;;;;;5077529;28;20490;-72
2021/10/27 01:53:42;;;;;;;38.53;27.77;;;13.70;99.90;;;;;;5068996;28;20043;-72
2021/10/27 01:56:07;;;;;;;40.17;27.77;;;13.70;99.90;;;;;;5073005;28;20105;-72
2021/10/27 01:58:34;;;;;;;37.25;27.75;;;13.80;99.90;;;;;;5097987;28;20078;-72
2021/10/27 02:00:59;;;;;;;43.58;28.65;;;13.80;99.90;;;;;;5051180;28;20304;-73
2021/10/27 02:03:25;;;;;;;47.60;29.73;;;13.80;99.90;;;;;;5084798;28;20053;-72
2021/10/27 02:05:51;;;;;;;42.95;29.20;;;13.80;99.90;;;;;;5075882;28;20054;-71
2021/10/27 02:08:17;;;;;;;38.45;29.10;;;13.80;99.90;;;;;;5078838;28;20308;-72
2021/10/27 02:10:43;;;;;;;43.58;29.00;;;13.80;99.90;;;;;;5063343;28;20686;-72
2021/10/27 02:13:09;;;;;;;43.67;28.95;;;13.80;99.90;;;;;;5067379;28;20410;-72
2021/10/27 02:15:35;;;;;;;42.08;30.98;;;13.80;99.90;;;;;;5091311;28;21331;-72
2021/10/27 02:18:01;;;;;;;43.35;30.80;;;13.80;99.90;;;;;;5084605;28;20052;-72
2021/10/27 02:20:27;;;;;;;38.75;28.95;;;13.90;99.90;;;;;;5065635;28;20591;-72
2021/10/27 02:22:53;;;;;;;40.08;29.08;;;13.90;99.90;;;;;;5082967;28;20044;-72
2021/10/27 02:25:19;;;;;;;44.08;30.20;;;13.90;99.90;;;;;;5084294;28;20090;-72
2021/10/27 02:27:44;;;;;;;38.42;28.70;;;13.90;99.90;;;;;;5054713;28;20469;-72
2021/10/27 02:30:11;;;;;;;36.45;28.75;;;13.90;99.90;;;;;;5066934;28;20827;-71
2021/10/27 02:32:37;;;;;;;45.20;29.75;;;13.90;99.90;;;;;;5103647;28;20043;-72
2021/10/27 02:35:07;;;;;;;45.05;28.17;;;13.90;99.90;;;;;;5089365;28;20040;-72
2021/10/27 02:37:32;;;;;;;38.00;26.90;;;13.90;99.90;;;;;;5079789;28;20123;-72
2021/10/27 02:39:58;;;;;;;42.65;28.67;;;13.90;99.90;;;;;;5087201;28;20466;-72
2021/10/27 02:42:24;;;;;;;39.38;27.63;;;13.90;99.90;;;;;;5060019;28;20050;-72
2021/10/27 02:44:50;;;;;;;34.72;26.30;;;13.90;99.90;;;;;;5069478;28;20039;-72
2021/10/27 02:47:16;;;;;;;37.13;25.67;;;13.90;99.90;;;;;;5101641;28;20067;-72
2021/10/27 02:49:42;;;;;;;37.38;24.38;;;13.90;99.90;;;;;;5098635;28;20071;-72
2021/10/27 02:52:08;;;;;;;35.88;25.30;;;13.90;99.90;;;;;;5067720;28;20046;-72
2021/10/27 02:54:33;;;;;;;29.60;22.98;;;13.90;99.90;;;;;;5099683;28;20569;-72
2021/10/27 02:57:00;;;;;;;35.03;22.38;;;13.90;99.90;;;;;;5088760;28;20076;-72
2021/10/27 02:59:25;;;;;;;29.83;22.02;;;13.90;99.90;;;;;;5106456;28;20584;-72
2021/10/27 03:01:51;;;;;;;30.35;21.38;;;13.90;99.90;;;;;;5042571;27;20050;-72
2021/10/27 03:04:17;;;;;;;32.67;21.67;;;13.90;99.90;;;;;;5089009;27;20093;-72
2021/10/27 03:06:43;;;;;;;33.92;20.80;;;13.90;99.90;;;;;;5092964;27;20046;-72
2021/10/27 03:09:09;;;;;;;26.73;20.70;;;13.90;99.90;;;;;;5107072;27;20777;-71
2021/10/27 03:11:34;;;;;;;26.33;19.75;;;13.90;99.90;;;;;;5073091;28;20401;-70
2021/10/27 03:14:00;;;;;;;34.95;20.85;;;13.90;99.90;;;;;;5084995;27;20046;-70
2021/10/27 03:16:26;;;;;;;32.08;19.40;;;13.90;99.90;;;;;;5105518;27;20039;-70
2021/10/27 03:18:52;;;;;;;27.98;18.38;;;13.90;99.90;;;;;;5079779;28;20698;-70
2021/10/27 03:21:18;;;;;;;26.17;18.42;;;14.00;99.90;;;;;;5101843;27;20050;-71
2021/10/27 03:23:44;;;;;;;26.77;18.90;;;14.00;99.90;;;;;;5077383;27;20449;-70
2021/10/27 03:26:13;;;;;;;23.90;16.95;;;14.00;99.90;;;;;;5108521;27;20043;-71
2021/10/27 03:28:38;;;;;;;25.83;17.25;;;14.00;99.90;;;;;;5092661;28;20035;-70
2021/10/27 03:31:04;;;;;;;26.63;17.02;;;14.00;99.90;;;;;;5104022;27;20692;-70
2021/10/27 03:33:30;;;;;;;24.88;16.73;;;14.00;99.90;;;;;;5084313;27;20047;-71
2021/10/27 03:35:56;;;;;;;26.90;16.23;;;14.00;99.90;;;;;;5055239;28;20036;-70
2021/10/27 03:38:21;;;;;;;26.52;15.32;;;14.00;99.90;;;;;;5079426;27;20038;-71
2021/10/27 03:40:47;;;;;;;26.17;15.45;;;14.00;99.90;;;;;;5055031;28;20153;-71
2021/10/27 03:43:14;;;;;;;27.00;15.38;;;14.00;99.90;;;;;;5074990;27;20077;-71
2021/10/27 03:45:41;;;;;;;34.30;14.43;;;14.00;99.90;;;;;;5092530;28;20513;-71
2021/10/27 03:48:07;;;;;;;22.23;14.15;;;14.00;99.90;;;;;;5107925;27;20122;-71
2021/10/27 03:50:33;;;;;;;23.05;13.20;;;14.00;99.90;;;;;;5101327;28;20177;-71
2021/10/27 03:52:59;;;;;;;23.02;13.52;;;14.00;99.90;;;;;;5074304;28;20054;-72
2021/10/27 03:55:25;;;;;;;22.08;13.43;;;14.00;99.90;;;;;;5068631;27;20038;-72
2021/10/27 03:57:50;;;;;;;28.60;14.00;;;14.00;99.90;;;;;;5103852;28;20048;-72
2021/10/27 04:00:16;;;;;;;24.90;12.57;;;14.00;99.90;;;;;;5091848;27;20088;-72
2021/10/27 04:02:42;;;;;;;25.33;12.80;;;14.00;99.90;;;;;;5098906;27;20044;-72
2021/10/27 04:05:09;;;;;;;20.17;12.38;;;14.00;99.90;;;;;;5086310;27;20057;-72
2021/10/27 04:07:37;;;;;;;24.88;13.18;;;14.00;99.90;;;;;;5091762;28;20128;-72
2021/10/27 04:10:08;;;;;;;26.08;13.35;;;14.00;99.90;;;;;;5087783;28;20058;-72
2021/10/27 04:12:34;;;;;;;25.35;13.05;;;14.00;99.90;;;;;;5097468;27;20040;-72
2021/10/27 04:15:01;;;;;;;24.98;13.35;;;14.00;99.90;;;;;;5092614;27;20041;-73
2021/10/27 04:17:27;;;;;;;28.00;14.27;;;14.00;99.90;;;;;;5085234;27;20036;-72
2021/10/27 04:19:53;;;;;;;19.13;13.45;;;14.00;99.90;;;;;;5055254;28;20046;-72
2021/10/27 04:22:19;;;;;;;21.90;13.73;;;14.00;99.90;;;;;;5100266;28;20055;-72
2021/10/27 04:24:44;;;;;;;26.20;14.35;;;14.00;99.90;;;;;;5082983;27;20126;-72
2021/10/27 04:27:10;;;;;;;24.63;14.40;;;14.00;99.90;;;;;;5090455;27;20034;-72
2021/10/27 04:29:36;;;;;;;30.33;14.65;;;14.00;99.90;;;;;;5077882;27;20046;-72
2021/10/27 04:32:02;;;;;;;28.75;14.05;;;14.10;99.90;;;;;;5078325;28;20102;-72
2021/10/27 04:34:28;;;;;;;24.73;14.10;;;14.10;99.90;;;;;;5076876;28;20039;-72
2021/10/27 04:36:53;;;;;;;23.42;12.95;;;14.10;99.90;;;;;;5061856;28;20051;-72
2021/10/27 04:39:19;;;;;;;22.95;12.57;;;14.10;99.90;;;;;;5085535;27;20728;-71
2021/10/27 04:41:45;;;;;;;19.58;13.10;;;14.00;99.90;;;;;;5085634;28;20428;-72
2021/10/27 04:44:11;;;;;;;24.70;12.95;;;14.10;99.90;;;;;;5068130;28;20121;-72
2021/10/27 04:46:37;;;;;;;21.45;12.35;;;14.00;99.90;;;;;;5070019;28;20101;-72
2021/10/27 04:49:02;;;;;;;22.13;11.60;;;14.00;99.90;;;;;;5082982;27;20047;-72
2021/10/27 04:51:28;;;;;;;27.50;13.88;;;14.00;99.90;;;;;;5105573;27;20031;-72
2021/10/27 04:53:54;;;;;;;29.65;12.57;;;14.00;99.90;;;;;;5056792;28;20383;-72
2021/10/27 04:56:21;;;;;;;30.38;14.07;;;14.00;99.90;;;;;;5087090;28;20067;-72
2021/10/27 04:58:46;;;;;;;24.10;14.02;;;14.00;99.90;;;;;;5097895;27;20044;-72
2021/10/27 05:01:12;;;;;;;27.55;13.73;;;14.00;99.90;;;;;;5090407;27;20703;-70
2021/10/27 05:03:39;;;;;;;26.83;13.93;;;14.00;99.90;;;;;;5067374;28;20119;-70
2021/10/27 05:06:04;;;;;;;29.33;13.13;;;13.90;99.90;;;;;;5065383;28;20123;-71
2021/10/27 05:08:33;;;;;;;25.20;13.77;;;13.90;99.90;;;;;;5069750;28;20041;-70
2021/10/27 05:10:59;;;;;;;27.67;13.15;;;13.90;99.90;;;;;;5084616;27;20130;-71
2021/10/27 05:13:25;;;;;;;22.35;12.55;;;14.00;99.90;;;;;;5066663;28;20125;-72
2021/10/27 05:15:51;;;;;;;27.25;13.20;;;14.00;99.90;;;;;;5069405;28;20071;-71
2021/10/27 05:18:17;;;;;;;23.02;12.73;;;14.00;99.90;;;;;;5065770;28;20625;-72
2021/10/27 05:20:44;;;;;;;23.23;12.88;;;14.00;99.90;;;;;;5085631;28;20291;-71
2021/10/27 05:23:11;;;;;;;21.10;14.23;;;14.00;99.90;;;;;;5072884;27;20039;-71
2021/10/27 05:25:38;;;;;;;27.52;16.13;;;14.00;99.90;;;;;;5083807;28;20039;-71
2021/10/27 05:28:04;;;;;;;22.50;16.23;;;14.00;99.90;;;;;;5068006;28;20039;-71
2021/10/27 05:30:30;;;;;;;24.80;17.13;;;14.00;99.90;;;;;;5084207;28;20243;-71
2021/10/27 05:32:57;;;;;;;28.60;18.15;;;13.90;99.90;;;;;;5062744;28;20051;-71
2021/10/27 05:35:25;;;;;;;26.40;18.05;;;14.00;99.90;;;;;;5068600;27;20043;-71
2021/10/27 05:37:51;;;;;;;26.65;19.45;;;14.00;99.90;;;;;;5080180;28;20046;-74
2021/10/27 05:40:17;;;;;;;31.25;20.27;;;13.90;99.90;;;;;;5080622;27;20055;-75
2021/10/27 05:42:43;;;;;;;28.23;19.77;;;13.90;99.90;;;;;;5082391;28;20474;-74
2021/10/27 05:45:09;;;;;;;30.42;18.85;;;13.90;99.90;;;;;;5087646;28;20032;-74
2021/10/27 05:47:37;;;;;;;28.92;19.95;;;13.90;99.90;;;;;;5069334;28;20043;-74
2021/10/27 05:50:27;;;;;;;29.50;19.65;;;13.90;99.90;;;;;;5067921;28;20050;-74
2021/10/27 05:55:38;;;;;;;29.00;20.45;;;13.90;99.90;;;;;;5071291;28;20070;-74
2021/10/27 05:58:05;;;;;;;30.70;20.17;;;13.90;99.90;;;;;;5077467;28;20039;-74
2021/10/27 06:00:32;;;;;;;32.58;20.52;;;13.90;99.90;;;;;;5063293;28;20243;-75
2021/10/27 06:02:59;;;;;;;29.67;19.58;;;13.90;99.90;;;;;;5059069;28;20131;-75
2021/10/27 06:05:25;;;;;;;23.15;19.08;;;13.90;99.90;;;;;;5080425;28;20076;-74
2021/10/27 06:07:52;;;;;;;28.45;19.75;;;13.90;99.90;;;;;;5064736;28;20098;-74
2021/10/27 06:10:20;;;;;;;27.08;18.95;;;13.90;99.90;;;;;;5076047;28;20112;-75
2021/10/27 06:12:52;;;;;;;26.77;19.15;;;13.90;99.90;;;;;;5048933;28;20040;-72
2021/10/27 06:15:19;;;;;;;25.92;18.63;;;13.90;99.90;;;;;;5055268;28;20032;-73
2021/10/27 06:17:45;;;;;;;31.80;18.63;;;13.90;99.90;;;;;;5065370;28;20052;-72
2021/10/27 06:20:12;;;;;;;25.77;17.85;;;13.90;99.90;;;;;;5069689;28;20044;-73
2021/10/27 06:22:39;;;;;;;25.65;17.40;;;13.90;99.90;;;;;;5046240;28;20040;-72
2021/10/27 06:25:07;;;;;;;23.60;16.65;;;13.90;99.90;;;;;;5069225;28;20048;-73
2021/10/27 06:27:34;;;;;;;21.55;16.45;;;13.90;99.90;;;;;;5085850;28;20043;-72
2021/10/27 06:30:13;;;;;;;25.00;16.42;;;13.90;99.90;;;;;;5085427;28;20066;-72
2021/10/27 06:35:37;;;;;;;23.67;17.17;;;13.90;99.90;;;;;;5052138;28;20094;-73
2021/10/27 06:38:19;;;;;;;30.80;17.20;;;13.90;99.90;;;;;;5034935;28;20048;-72
2021/10/27 06:46:31;;;;;;;24.63;17.58;;;13.90;99.90;;;;;;5086721;28;20506;-72
2021/10/27 06:48:57;;;;;;;26.17;19.25;;;13.90;99.90;;;;;;5087311;28;20185;-72
2021/10/27 06:51:23;;;;;;;25.92;18.17;;;13.90;99.90;;;;;;5069812;28;20135;-73
2021/10/27 06:53:49;;;;;;;23.80;17.80;;;13.90;99.90;;;;;;5086899;28;20432;-74
2021/10/27 06:56:18;;;;;;;25.52;17.90;;;13.90;99.90;;;;;;5070342;28;20044;-72
2021/10/27 06:58:48;;;;;;;27.92;18.45;;;13.90;99.90;;;;;;5073383;28;20187;-72
2021/10/27 07:01:24;;;;;;;26.75;19.60;;;13.90;99.90;;;;;;5054376;28;20044;-73
2021/10/27 07:17:15;;;;;;;27.15;20.33;;;13.90;99.90;;;;;;5069330;28;20386;-72
2021/10/27 07:19:44;;;;;;;27.77;20.98;;;13.90;99.90;;;;;;5068602;28;20059;-74
2021/10/27 07:22:14;;;;;;;25.75;20.83;;;13.90;99.90;;;;;;5088628;28;20040;-74
2021/10/27 07:24:41;;;;;;;28.50;21.90;;;13.90;99.90;;;;;;5055160;28;20203;-74
2021/10/27 07:27:09;;;;;;;28.77;21.45;;;13.90;99.90;;;;;;5072663;28;20298;-74
2021/10/27 07:29:36;;;;;;;29.10;21.90;;;13.90;99.90;;;;;;5088756;28;20047;-74
2021/10/27 07:32:07;;;;;;;27.95;20.88;;;13.90;99.90;;;;;;5067961;28;20407;-72
2021/10/27 07:34:40;;;;;;;28.20;21.02;;;13.90;99.90;;;;;;5068295;28;20105;-72
2021/10/27 07:43:10;;;;;;;21.85;19.45;;;13.90;99.90;;;;;;5010910;28;20156;-72
2021/10/27 07:45:38;;;;;;;28.05;20.50;;;13.90;99.90;;;;;;5010126;28;20060;-72
2021/10/27 07:48:04;;;;;;;28.52;20.52;;;13.90;99.90;;;;;;5063443;28;20059;-72
2021/10/27 07:50:34;;;;;;;27.35;20.67;;;13.90;99.90;;;;;;5072076;28;20135;-72
2021/10/27 07:53:02;;;;;;;25.92;19.67;;;13.90;99.90;;;;;;5056169;28;20131;-73
2021/10/27 07:55:29;;;;;;;30.13;19.70;;;14.00;99.90;;;;;;5071792;28;20067;-72
2021/10/27 07:57:56;;;;;;;27.85;20.13;;;14.00;99.90;;;;;;5089109;28;20052;-72
2021/10/27 08:00:23;;;;;;;21.45;19.00;;;14.00;99.90;;;;;;5088187;28;20211;-73
2021/10/27 08:02:50;;;;;;;23.15;19.55;;;14.00;99.90;;;;;;5071362;28;20395;-73
2021/10/27 08:05:17;;;;;;;23.02;18.23;;;14.10;99.90;;;;;;5086165;28;20095;-72
2021/10/27 08:07:48;;;;;;;22.58;17.88;;;14.10;99.90;;;;;;5051324;28;20097;-72
2021/10/27 08:10:19;;;;;;;21.35;16.95;;;14.10;99.90;;;;;;5077451;28;20075;-73
2021/10/27 08:12:46;;;;;;;21.70;17.05;;;14.10;99.90;;;;;;5071278;28;20102;-72
2021/10/27 08:15:13;;;;;;;25.05;17.60;;;14.10;99.90;;;;;;5071531;28;20044;-73
2021/10/27 08:17:40;;;;;;;21.52;15.35;;;14.10;99.90;;;;;;5071105;28;20048;-73
2021/10/27 08:20:08;;;;;;;20.65;16.20;;;14.20;99.90;;;;;;5078636;28;20131;-72
2021/10/27 08:22:35;;;;;;;18.98;15.85;;;14.20;99.90;;;;;;5082707;28;20098;-72
2021/10/27 08:25:05;;;;;;;18.95;14.00;;;14.20;99.90;;;;;;5067637;28;20044;-73
2021/10/27 08:27:37;;;;;;;;;;;14.20;99.90;;;;;;5068456;28;20123;-72
2021/10/27 08:30:10;;;;;;;17.00;13.13;;;14.20;99.90;;;;;;5051338;28;19956;-72
2021/10/27 08:33:19;;;;;;;17.92;12.15;;;14.20;99.90;;;;;;5067354;28;20087;-73
2021/10/27 08:35:36;;;;;;;16.90;12.02;;;14.20;99.90;;;;;;5050160;28;20118;-72
2021/10/27 08:38:05;;;;;;;16.65;12.05;;;14.20;99.90;;;;;;5068054;28;20055;-73
2021/10/27 08:40:31;;;;;;;17.95;12.35;;;14.20;99.90;;;;;;5034279;28;20040;-73
2021/10/27 08:42:58;;;;;;;14.65;11.52;;;14.20;99.90;;;;;;5050965;28;20040;-73
2021/10/27 08:45:25;;;;;;;19.02;12.25;;;14.20;99.90;;;;;;5033657;28;20127;-72
2021/10/27 08:47:52;;;;;;;18.42;12.20;;;14.20;99.90;;;;;;5068030;28;20119;-72
2021/10/27 08:50:20;;;;;;;15.20;11.32;;;14.20;99.90;;;;;;5071589;28;20051;-72
2021/10/27 08:52:47;;;;;;;15.15;12.30;;;14.10;99.90;;;;;;5088865;28;20040;-72
2021/10/27 08:55:14;;;;;;;17.58;10.68;;;14.10;99.90;;;;;;5071560;28;20494;-72
2021/10/27 08:57:44;;;;;;;17.23;10.73;;;14.10;99.90;;;;;;5088187;28;20123;-73
2021/10/27 09:03:05;;;;;;;15.70;10.50;;;14.10;99.90;;;;;;5073400;28;20062;-73
2021/10/27 09:06:01;;;;;;;16.23;10.63;;;14.20;99.90;;;;;;5065842;28;20107;-72
2021/10/27 09:09:32;;;;;;;14.32;9.52;;;14.20;99.90;;;;;;5067328;28;20406;-72
2021/10/27 09:34:40;;;;;;;14.48;9.95;;;14.20;99.90;;;;;;5083929;28;20055;-72
2021/10/27 09:40:06;;;;;;;16.58;9.05;;;14.20;99.90;;;;;;5066205;28;20384;-72
2021/10/27 10:05:17;;;;;;;11.70;5.78;;;14.60;99.90;;;;;;5082655;28;20045;-74
2021/10/27 10:07:44;;;;;;;9.30;5.57;;;14.60;99.90;;;;;;5073838;28;20603;-74
2021/10/27 10:10:12;;;;;;;11.52;5.15;;;14.60;99.90;;;;;;5067343;28;20044;-73
2021/10/27 10:12:45;;;;;;;9.55;5.43;;;14.70;99.90;;;;;;5066221;28;20040;-73
2021/10/27 10:15:12;;;;;;;10.80;6.00;;;14.70;99.90;;;;;;5074805;28;20066;-73
2021/10/27 10:17:42;;;;;;;10.55;5.90;;;14.70;99.90;;;;;;5066100;28;20114;-73
2021/10/27 10:20:12;;;;;;;;;;;14.70;99.90;;;;;;5051455;28;20452;-73
2021/10/27 10:22:41;;;;;;;11.13;5.00;;;14.80;99.90;;;;;;5099838;28;19946;-73
2021/10/27 10:25:20;;;;;;;11.73;5.53;;;14.80;99.90;;;;;;5049488;28;20102;-74
2021/10/27 10:28:12;;;;;;;12.23;5.35;;;14.90;99.90;;;;;;5049942;28;20082;-74
2021/10/27 10:30:48;;;;;;;10.77;5.20;;;14.90;99.90;;;;;;5066668;28;20852;-74
2021/10/27 10:33:15;;;;;;;13.00;5.10;;;15.00;99.90;;;;;;5053300;28;20220;-74
2021/10/27 10:35:54;;;;;;;11.35;4.90;;;15.00;99.90;;;;;;5036187;28;20487;-73
2021/10/27 11:27:24;;;;;;;11.95;5.57;;;15.10;99.90;;;;;;5068656;28;20143;-72
2021/10/27 11:38:35;;;;;;;11.30;4.78;;;15.20;99.90;;;;;;5054573;28;20088;-73
2021/10/27 11:41:44;;;;;;;8.88;5.07;;;15.20;99.90;;;;;;5082388;28;20476;-73
2021/10/27 11:46:27;;;;;;;9.98;4.97;;;15.30;99.90;;;;;;5071477;28;20048;-73
2021/10/27 11:48:57;;;;;;;10.45;5.10;;;15.30;99.90;;;;;;5089166;28;20051;-74
2021/10/27 11:51:23;;;;;;;10.60;5.28;;;15.40;99.90;;;;;;5072256;28;20116;-73
2021/10/27 11:53:49;;;;;;;11.48;5.50;;;15.40;99.90;;;;;;5055235;28;20052;-72
2021/10/27 11:56:18;;;;;;;12.05;5.32;;;15.40;99.90;;;;;;5051863;28;20040;-72
2021/10/27 11:58:47;;;;;;;11.00;4.95;;;15.50;99.90;;;;;;5084852;28;20407;-72
2021/10/27 12:01:27;;;;;;;10.82;5.13;;;15.40;99.90;;;;;;5068222;28;20052;-73
2021/10/27 12:03:56;;;;;;;13.57;5.55;;;15.50;99.90;;;;;;5085186;28;20044;-73
2021/10/27 12:09:27;;;;;;;11.10;4.90;;;15.40;99.90;;;;;;5069961;28;20057;-72
2021/10/27 12:12:13;;;;;;;10.43;4.90;;;15.50;99.90;;;;;;5068870;28;20519;-72
2021/10/27 12:20:43;;;;;;;7.05;4.28;;;15.50;99.90;;;;;;5079648;28;20044;-72
2021/10/27 12:23:18;;;;;;;8.45;4.07;;;15.50;99.90;;;;;;5052326;28;20090;-72
2021/10/27 12:25:44;;;;;;;9.77;4.40;;;15.50;99.90;;;;;;5052202;28;20037;-73
2021/10/27 12:28:32;;;;;;;11.65;4.88;;;15.50;99.90;;;;;;5051671;28;20056;-72
2021/10/27 12:31:15;;;;;;;11.55;4.70;;;15.50;99.90;;;;;;5084221;28;20411;-73
2021/10/27 12:33:42;;;;;;;11.05;4.75;;;15.50;99.90;;;;;;5083195;28;20507;-72
2021/10/27 12:36:29;;;;;;;9.68;4.72;;;15.40;99.90;;;;;;5059276;28;20075;-72
2021/10/27 12:39:34;;;;;;;7.95;5.22;;;15.40;99.90;;;;;;5087493;28;20491;-72
2021/10/27 12:42:06;;;;;;;10.07;5.85;;;15.40;99.90;;;;;;5067804;28;20048;-72
2021/10/27 12:44:34;;;;;;;10.20;5.50;;;15.40;99.90;;;;;;5071982;28;20082;-72
2021/10/27 12:47:29;;;;;;;9.10;5.45;;;15.40;99.90;;;;;;5087789;28;20048;-73
2021/10/27 12:50:21;;;;;;;13.18;5.75;;;15.40;99.90;;;;;;5065139;28;20060;-72
2021/10/27 12:52:58;;;;;;;13.05;6.00;;;15.40;99.90;;;;;;5063983;28;20511;-72
2021/10/27 12:55:32;;;;;;;7.85;5.97;;;15.40;99.90;;;;;;5077562;28;20116;-72
2021/10/27 12:58:09;;;;;;;12.50;5.57;;;15.40;99.90;;;;;;5087845;28;20048;-72
2021/10/27 13:03:42;;;;;;;8.85;5.10;;;15.40;99.90;;;;;;5087358;28;20054;-72
2021/10/27 13:21:31;;;;;;;10.13;5.43;;;15.30;99.90;;;;;;5056954;28;20057;-72
2021/10/27 13:31:57;;;;;;;15.82;7.18;;;15.30;99.90;;;;;;5067233;28;20062;-72
2021/10/27 13:34:24;;;;;;;10.05;5.70;;;15.30;99.90;;;;;;5050091;28;20127;-72
2021/10/27 13:36:51;;;;;;;9.70;5.72;;;15.20;99.90;;;;;;5066343;28;20044;-73
2021/10/27 13:39:18;;;;;;;11.15;5.35;;;15.30;99.90;;;;;;5050028;28;20049;-71
2021/10/27 13:41:49;;;;;;;9.57;5.18;;;15.20;99.90;;;;;;5068541;28;20105;-72
2021/10/27 13:44:19;;;;;;;10.75;5.70;;;15.20;99.90;;;;;;5054035;28;20486;-73
2021/10/27 14:08:27;;;;;;;6.53;4.43;;;15.20;99.90;;;;;;5059868;28;20048;-73
2021/10/27 14:40:29;;;;;;;8.30;3.47;;;15.10;99.90;;;;;;5078083;28;20052;-72
2021/10/27 14:59:21;;;;;;;6.25;2.70;;;15.10;99.90;;;;;;5085989;28;20138;-69
2021/10/27 15:20:54;;;;;;;6.15;2.25;;;15.00;99.90;;;;;;5071968;28;20541;-70
2021/10/27 15:42:14;;;;;;;7.68;2.45;;;14.90;99.90;;;;;;5071339;28;20261;-69
2021/10/27 15:44:56;;;;;;;9.65;2.40;;;14.90;99.90;;;;;;5068429;28;20055;-70
2021/10/27 15:52:51;;;;;;;6.78;2.70;;;14.90;99.90;;;;;;5082039;28;20060;-69
2021/10/27 15:55:17;;;;;;;6.95;2.40;;;14.80;99.90;;;;;;5062422;28;20251;-69
2021/10/27 15:57:43;;;;;;;6.80;2.53;;;14.80;99.90;;;;;;5058252;28;20495;-69
2021/10/27 16:00:09;;;;;;;6.95;2.80;;;14.80;99.90;;;;;;5082481;28;20055;-69
2021/10/27 16:02:35;;;;;;;10.93;3.25;;;14.70;99.90;;;;;;5082033;28;20052;-69
2021/10/27 16:05:07;;;;;;;6.13;3.33;;;14.70;99.90;;;;;;5045735;28;20044;-69
2021/10/27 16:07:35;;;;;;;9.48;3.88;;;14.70;99.90;;;;;;5081986;28;20052;-69
2021/10/27 16:10:13;;;;;;;8.13;3.55;;;14.70;99.90;;;;;;5062811;28;20058;-71
2021/10/27 16:12:43;;;;;;;6.75;3.42;;;14.60;99.90;;;;;;5071435;28;20082;-69
2021/10/27 16:17:59;;;;;;;8.60;3.40;;;14.60;99.90;;;;;;5056549;28;20499;-69
2021/10/27 16:20:25;;;;;;;10.75;3.90;;;14.60;99.90;;;;;;5067773;28;20052;-69
2021/10/27 16:22:51;;;;;;;8.00;3.70;;;14.60;99.90;;;;;;5026587;28;20222;-70
2021/10/27 16:25:17;;;;;;;7.88;3.60;;;14.60;99.90;;;;;;5084069;28;20032;-69
2021/10/27 16:27:43;;;;;;;7.32;3.80;;;14.60;99.90;;;;;;5080972;28;20103;-69
2021/10/27 16:30:09;;;;;;;11.00;4.30;;;14.50;99.90;;;;;;5066616;28;20126;-69
2021/10/27 16:32:35;;;;;;;5.28;3.60;;;14.50;99.90;;;;;;5066278;28;20052;-70
2021/10/27 16:35:02;;;;;;;10.95;3.97;;;14.50;99.90;;;;;;5041221;28;20054;-69
2021/10/27 16:37:28;;;;;;;7.45;3.88;;;14.50;99.90;;;;;;5083441;28;21203;-69
2021/10/27 16:39:55;;;;;;;10.80;4.38;;;14.40;99.90;;;;;;5042509;28;20566;-69
2021/10/27 16:42:22;;;;;;;7.75;4.47;;;14.40;99.90;;;;;;5079931;28;20178;-69
2021/10/27 16:44:48;;;;;;;5.85;3.90;;;14.40;99.90;;;;;;5050265;28;20035;-69
2021/10/27 16:47:15;;;;;;;8.95;4.82;;;14.30;99.90;;;;;;5082242;28;20048;-69
2021/10/27 16:49:41;;;;;;;8.05;4.40;;;14.30;99.90;;;;;;5076734;28;20411;-70
2021/10/27 16:52:07;;;;;;;10.70;5.38;;;14.40;99.90;;;;;;5078167;28;20052;-69
2021/10/27 16:54:34;;;;;;;9.50;5.10;;;14.30;99.90;;;;;;5058302;28;20481;-69
2021/10/27 16:57:00;;;;;;;10.25;5.57;;;14.30;99.90;;;;;;5083879;28;20162;-70
2021/10/27 16:59:25;;;;;;;9.38;5.65;;;14.30;99.90;;;;;;5079164;28;20082;-69
2021/10/27 17:01:51;;;;;;;12.30;6.00;;;14.30;99.90;;;;;;5065482;28;20047;-69
2021/10/27 17:04:18;;;;;;;8.30;5.85;;;14.30;99.90;;;;;;5066070;28;20112;-69
2021/10/27 17:06:44;;;;;;;9.10;7.00;;;14.30;99.90;;;;;;5084856;28;20036;-70
2021/10/27 17:09:10;;;;;;;10.50;7.68;;;14.20;99.90;;;;;;5082943;28;20094;-69
2021/10/27 17:11:36;;;;;;;10.18;7.78;;;14.20;99.90;;;;;;5036430;28;20036;-70
2021/10/27 17:14:02;;;;;;;14.30;7.55;;;14.10;99.90;;;;;;5067305;28;20096;-70
2021/10/27 17:16:31;;;;;;;15.40;9.07;;;14.10;99.90;;;;;;5074974;28;20407;-69
2021/10/27 17:18:57;;;;;;;13.13;9.32;;;14.10;99.90;;;;;;5064235;28;20040;-70
2021/10/27 17:21:23;;;;;;;12.75;8.35;;;14.00;99.90;;;;;;5079832;28;20189;-70
2021/10/27 17:23:53;;;;;;;12.77;8.73;;;13.90;99.90;;;;;;5067506;28;20040;-70
2021/10/27 17:26:18;;;;;;;12.88;9.82;;;13.90;99.90;;;;;;5083853;28;20048;-70
2021/10/27 17:28:45;;;;;;;15.43;11.30;;;13.80;99.90;;;;;;5079915;28;20051;-69
2021/10/27 17:31:12;;;;;;;15.05;9.68;;;13.80;99.90;;;;;;5083486;28;20510;-69